sensor_id;sensor_type;location;lat;lon;timestamp;temperature;humidity
22379;DHT22;11357;49.990;7.370;2022-07-09T00:00:12;17.30;67.60
22379;DHT22;11357;49.990;7.370;2022-07-09T00:02:38;17.30;67.60
22379;DHT22;11357;49.990;7.370;2022-07-09T00:05:04;17.30;67.60
22379;DHT22;11357;49.990;7.370;2022-07-09T00:07:30;17.30;67.80
22379;DHT22;11357;49.990;7.370;2022-07-09T00:09:55;17.20;67.90
22379;DHT22;11357;49.990;7.370;2022-07-09T00:12:21;17.20;68.00
22379;DHT22;11357;49.990;7.370;2022-07-09T00:14:47;17.20;68.80
22379;DHT22;11357;49.990;7.370;2022-07-09T00:17:12;17.20;68.50
22379;DHT22;11357;49.990;7.370;2022-07-09T00:19:38;17.10;68.70
22379;DHT22;11357;49.990;7.370;2022-07-09T00:22:04;17.10;68.90
22379;DHT22;11357;49.990;7.370;2022-07-09T00:24:31;17.10;69.00
22379;DHT22;11357;49.990;7.370;2022-07-09T00:26:57;17.10;69.00
22379;DHT22;11357;49.990;7.370;2022-07-09T00:29:23;17.10;69.00
22379;DHT22;11357;49.990;7.370;2022-07-09T00:31:49;17.10;69.00
22379;DHT22;11357;49.990;7.370;2022-07-09T00:34:14;17.10;69.00
22379;DHT22;11357;49.990;7.370;2022-07-09T00:36:40;17.10;69.10
22379;DHT22;11357;49.990;7.370;2022-07-09T00:39:06;17.10;69.30
22379;DHT22;11357;49.990;7.370;2022-07-09T00:41:31;17.10;69.50
22379;DHT22;11357;49.990;7.370;2022-07-09T00:43:57;17.00;69.80
22379;DHT22;11357;49.990;7.370;2022-07-09T00:46:23;17.00;70.00
22379;DHT22;11357;49.990;7.370;2022-07-09T00:48:48;17.00;70.20
22379;DHT22;11357;49.990;7.370;2022-07-09T00:51:17;16.90;70.40
22379;DHT22;11357;49.990;7.370;2022-07-09T00:53:44;16.90;70.60
22379;DHT22;11357;49.990;7.370;2022-07-09T00:56:11;16.80;70.60
22379;DHT22;11357;49.990;7.370;2022-07-09T00:58:38;16.80;70.60
22379;DHT22;11357;49.990;7.370;2022-07-09T01:01:06;16.80;70.60
22379;DHT22;11357;49.990;7.370;2022-07-09T01:03:32;16.70;70.50
22379;DHT22;11357;49.990;7.370;2022-07-09T01:05:57;16.70;70.50
22379;DHT22;11357;49.990;7.370;2022-07-09T01:08:25;16.70;70.40
22379;DHT22;11357;49.990;7.370;2022-07-09T01:10:51;16.70;70.30
22379;DHT22;11357;49.990;7.370;2022-07-09T01:13:17;16.60;70.20
22379;DHT22;11357;49.990;7.370;2022-07-09T01:15:43;16.60;70.10
22379;DHT22;11357;49.990;7.370;2022-07-09T01:18:12;16.60;70.10
22379;DHT22;11357;49.990;7.370;2022-07-09T01:20:38;16.60;70.00
22379;DHT22;11357;49.990;7.370;2022-07-09T01:23:04;16.60;70.00
22379;DHT22;11357;49.990;7.370;2022-07-09T01:25:38;16.60;70.00
22379;DHT22;11357;49.990;7.370;2022-07-09T01:28:05;16.60;70.20
22379;DHT22;11357;49.990;7.370;2022-07-09T01:30:33;16.50;70.10
22379;DHT22;11357;49.990;7.370;2022-07-09T01:32:59;16.50;70.10
22379;DHT22;11357;49.990;7.370;2022-07-09T01:35:25;16.50;70.20
22379;DHT22;11357;49.990;7.370;2022-07-09T01:37:51;16.50;70.10
22379;DHT22;11357;49.990;7.370;2022-07-09T01:40:18;16.40;70.30
22379;DHT22;11357;49.990;7.370;2022-07-09T01:42:43;16.40;70.20
22379;DHT22;11357;49.990;7.370;2022-07-09T01:45:09;16.40;70.40
22379;DHT22;11357;49.990;7.370;2022-07-09T01:47:35;16.40;70.40
22379;DHT22;11357;49.990;7.370;2022-07-09T01:50:01;16.40;70.40
22379;DHT22;11357;49.990;7.370;2022-07-09T01:52:29;16.30;70.40
22379;DHT22;11357;49.990;7.370;2022-07-09T01:54:54;16.30;70.40
22379;DHT22;11357;49.990;7.370;2022-07-09T01:57:20;16.30;70.30
22379;DHT22;11357;49.990;7.370;2022-07-09T01:59:46;16.30;70.30
22379;DHT22;11357;49.990;7.370;2022-07-09T02:02:11;16.30;70.40
22379;DHT22;11357;49.990;7.370;2022-07-09T02:04:37;16.20;70.50
22379;DHT22;11357;49.990;7.370;2022-07-09T02:07:03;16.20;70.60
22379;DHT22;11357;49.990;7.370;2022-07-09T02:09:29;16.20;70.60
22379;DHT22;11357;49.990;7.370;2022-07-09T02:11:55;16.20;70.70
22379;DHT22;11357;49.990;7.370;2022-07-09T02:14:21;16.20;70.70
22379;DHT22;11357;49.990;7.370;2022-07-09T02:16:47;16.10;70.70
22379;DHT22;11357;49.990;7.370;2022-07-09T02:19:13;16.10;70.70
22379;DHT22;11357;49.990;7.370;2022-07-09T02:21:39;16.10;70.60
22379;DHT22;11357;49.990;7.370;2022-07-09T02:24:06;16.10;70.60
22379;DHT22;11357;49.990;7.370;2022-07-09T02:26:31;16.10;70.60
22379;DHT22;11357;49.990;7.370;2022-07-09T02:28:58;16.10;70.70
22379;DHT22;11357;49.990;7.370;2022-07-09T02:31:24;16.10;70.70
22379;DHT22;11357;49.990;7.370;2022-07-09T02:33:50;16.00;71.00
22379;DHT22;11357;49.990;7.370;2022-07-09T02:36:16;16.00;71.60
22379;DHT22;11357;49.990;7.370;2022-07-09T02:38:42;15.90;72.00
22379;DHT22;11357;49.990;7.370;2022-07-09T02:41:07;15.90;72.30
22379;DHT22;11357;49.990;7.370;2022-07-09T02:43:33;15.90;72.40
22379;DHT22;11357;49.990;7.370;2022-07-09T02:45:59;15.90;72.50
22379;DHT22;11357;49.990;7.370;2022-07-09T02:48:25;15.90;72.40
22379;DHT22;11357;49.990;7.370;2022-07-09T02:50:53;15.90;72.30
22379;DHT22;11357;49.990;7.370;2022-07-09T02:53:20;15.90;72.20
22379;DHT22;11357;49.990;7.370;2022-07-09T02:55:46;16.00;72.10
22379;DHT22;11357;49.990;7.370;2022-07-09T02:58:12;16.00;72.00
22379;DHT22;11357;49.990;7.370;2022-07-09T03:00:39;16.00;72.10
22379;DHT22;11357;49.990;7.370;2022-07-09T03:03:08;16.00;72.30
22379;DHT22;11357;49.990;7.370;2022-07-09T03:05:34;16.00;72.20
22379;DHT22;11357;49.990;7.370;2022-07-09T03:08:00;16.00;72.30
22379;DHT22;11357;49.990;7.370;2022-07-09T03:10:27;16.00;72.40
22379;DHT22;11357;49.990;7.370;2022-07-09T03:12:52;16.00;72.70
22379;DHT22;11357;49.990;7.370;2022-07-09T03:15:18;15.90;72.90
22379;DHT22;11357;49.990;7.370;2022-07-09T03:17:44;15.90;73.10
22379;DHT22;11357;49.990;7.370;2022-07-09T03:20:11;15.90;73.20
22379;DHT22;11357;49.990;7.370;2022-07-09T03:22:37;15.90;73.20
22379;DHT22;11357;49.990;7.370;2022-07-09T03:25:03;15.80;73.40
22379;DHT22;11357;49.990;7.370;2022-07-09T03:27:29;15.80;73.70
22379;DHT22;11357;49.990;7.370;2022-07-09T03:29:55;15.80;74.10
22379;DHT22;11357;49.990;7.370;2022-07-09T03:32:20;15.70;74.20
22379;DHT22;11357;49.990;7.370;2022-07-09T03:34:47;15.70;74.50
22379;DHT22;11357;49.990;7.370;2022-07-09T03:37:13;15.80;74.60
22379;DHT22;11357;49.990;7.370;2022-07-09T03:39:39;15.80;74.60
22379;DHT22;11357;49.990;7.370;2022-07-09T03:42:05;15.80;74.80
22379;DHT22;11357;49.990;7.370;2022-07-09T03:44:32;15.80;74.90
22379;DHT22;11357;49.990;7.370;2022-07-09T03:46:59;15.70;75.00
22379;DHT22;11357;49.990;7.370;2022-07-09T03:49:24;15.60;75.30
22379;DHT22;11357;49.990;7.370;2022-07-09T03:51:50;15.60;75.60
22379;DHT22;11357;49.990;7.370;2022-07-09T03:54:16;15.50;75.80
22379;DHT22;11357;49.990;7.370;2022-07-09T03:56:41;15.50;76.10
22379;DHT22;11357;49.990;7.370;2022-07-09T03:59:07;15.50;76.40
22379;DHT22;11357;49.990;7.370;2022-07-09T04:01:33;15.50;76.50
22379;DHT22;11357;49.990;7.370;2022-07-09T04:03:58;15.50;76.80
22379;DHT22;11357;49.990;7.370;2022-07-09T04:06:24;15.60;77.10
22379;DHT22;11357;49.990;7.370;2022-07-09T04:08:50;15.60;77.20
22379;DHT22;11357;49.990;7.370;2022-07-09T04:11:16;15.60;77.10
22379;DHT22;11357;49.990;7.370;2022-07-09T04:13:42;15.70;77.10
22379;DHT22;11357;49.990;7.370;2022-07-09T04:16:07;15.70;77.20
22379;DHT22;11357;49.990;7.370;2022-07-09T04:18:34;15.70;77.30
22379;DHT22;11357;49.990;7.370;2022-07-09T04:21:00;15.70;77.40
22379;DHT22;11357;49.990;7.370;2022-07-09T04:23:26;15.70;78.30
22379;DHT22;11357;49.990;7.370;2022-07-09T04:25:53;15.70;77.70
22379;DHT22;11357;49.990;7.370;2022-07-09T04:28:19;15.80;77.80
22379;DHT22;11357;49.990;7.370;2022-07-09T04:30:45;15.80;77.80
22379;DHT22;11357;49.990;7.370;2022-07-09T04:33:11;15.70;78.00
22379;DHT22;11357;49.990;7.370;2022-07-09T04:35:37;15.70;78.40
22379;DHT22;11357;49.990;7.370;2022-07-09T04:38:04;15.70;78.60
22379;DHT22;11357;49.990;7.370;2022-07-09T04:40:30;15.70;78.80
22379;DHT22;11357;49.990;7.370;2022-07-09T04:42:56;15.70;79.10
22379;DHT22;11357;49.990;7.370;2022-07-09T04:45:21;15.90;79.60
22379;DHT22;11357;49.990;7.370;2022-07-09T04:47:47;16.00;79.50
22379;DHT22;11357;49.990;7.370;2022-07-09T04:50:13;16.20;79.70
22379;DHT22;11357;49.990;7.370;2022-07-09T04:52:42;16.30;79.70
22379;DHT22;11357;49.990;7.370;2022-07-09T04:55:08;16.60;79.80
22379;DHT22;11357;49.990;7.370;2022-07-09T04:57:36;16.80;79.50
22379;DHT22;11357;49.990;7.370;2022-07-09T05:00:02;17.00;79.20
22379;DHT22;11357;49.990;7.370;2022-07-09T05:02:28;17.30;79.10
22379;DHT22;11357;49.990;7.370;2022-07-09T05:04:54;17.50;78.90
22379;DHT22;11357;49.990;7.370;2022-07-09T05:07:19;17.80;78.60
22379;DHT22;11357;49.990;7.370;2022-07-09T05:09:45;18.10;78.40
22379;DHT22;11357;49.990;7.370;2022-07-09T05:12:11;18.40;78.00
22379;DHT22;11357;49.990;7.370;2022-07-09T05:14:37;18.60;77.60
22379;DHT22;11357;49.990;7.370;2022-07-09T05:17:04;18.90;77.30
22379;DHT22;11357;49.990;7.370;2022-07-09T05:19:30;19.10;76.70
22379;DHT22;11357;49.990;7.370;2022-07-09T05:21:56;19.30;76.20
22379;DHT22;11357;49.990;7.370;2022-07-09T05:24:22;19.40;75.70
22379;DHT22;11357;49.990;7.370;2022-07-09T05:26:48;19.50;75.40
22379;DHT22;11357;49.990;7.370;2022-07-09T05:29:14;19.70;75.20
22379;DHT22;11357;49.990;7.370;2022-07-09T05:31:40;19.80;74.90
22379;DHT22;11357;49.990;7.370;2022-07-09T05:34:06;20.00;74.50
22379;DHT22;11357;49.990;7.370;2022-07-09T05:36:34;20.00;74.10
22379;DHT22;11357;49.990;7.370;2022-07-09T05:39:00;20.20;73.80
22379;DHT22;11357;49.990;7.370;2022-07-09T05:41:26;20.30;73.60
22379;DHT22;11357;49.990;7.370;2022-07-09T05:43:53;20.40;73.70
22379;DHT22;11357;49.990;7.370;2022-07-09T05:46:19;20.50;73.40
22379;DHT22;11357;49.990;7.370;2022-07-09T05:48:46;20.60;73.30
22379;DHT22;11357;49.990;7.370;2022-07-09T05:51:11;20.70;72.70
22379;DHT22;11357;49.990;7.370;2022-07-09T05:53:37;20.90;72.90
22379;DHT22;11357;49.990;7.370;2022-07-09T05:56:04;21.20;72.40
22379;DHT22;11357;49.990;7.370;2022-07-09T05:58:29;21.40;71.50
22379;DHT22;11357;49.990;7.370;2022-07-09T06:00:55;21.60;71.20
22379;DHT22;11357;49.990;7.370;2022-07-09T06:03:21;21.70;70.40
22379;DHT22;11357;49.990;7.370;2022-07-09T06:05:46;21.90;70.00
22379;DHT22;11357;49.990;7.370;2022-07-09T06:08:12;22.10;69.50
22379;DHT22;11357;49.990;7.370;2022-07-09T06:10:38;22.30;69.30
22379;DHT22;11357;49.990;7.370;2022-07-09T06:13:03;22.60;68.40
22379;DHT22;11357;49.990;7.370;2022-07-09T06:15:29;22.90;67.90
22379;DHT22;11357;49.990;7.370;2022-07-09T06:17:55;23.00;66.50
22379;DHT22;11357;49.990;7.370;2022-07-09T06:20:21;23.10;66.30
22379;DHT22;11357;49.990;7.370;2022-07-09T06:22:46;23.30;65.40
22379;DHT22;11357;49.990;7.370;2022-07-09T06:25:12;23.50;64.40
22379;DHT22;11357;49.990;7.370;2022-07-09T06:27:38;23.50;63.70
22379;DHT22;11357;49.990;7.370;2022-07-09T06:30:06;23.50;63.50
22379;DHT22;11357;49.990;7.370;2022-07-09T06:32:32;23.60;63.00
22379;DHT22;11357;49.990;7.370;2022-07-09T06:34:58;23.70;62.60
22379;DHT22;11357;49.990;7.370;2022-07-09T06:37:24;24.00;62.10
22379;DHT22;11357;49.990;7.370;2022-07-09T06:39:49;24.30;61.70
22379;DHT22;11357;49.990;7.370;2022-07-09T06:42:17;24.70;60.80
22379;DHT22;11357;49.990;7.370;2022-07-09T06:44:43;25.00;59.40
22379;DHT22;11357;49.990;7.370;2022-07-09T06:47:10;25.10;58.70
22379;DHT22;11357;49.990;7.370;2022-07-09T06:49:36;25.10;58.20
22379;DHT22;11357;49.990;7.370;2022-07-09T06:52:03;25.10;58.00
22379;DHT22;11357;49.990;7.370;2022-07-09T06:54:29;25.20;58.00
22379;DHT22;11357;49.990;7.370;2022-07-09T06:56:54;25.40;57.90
22379;DHT22;11357;49.990;7.370;2022-07-09T06:59:22;25.80;57.60
22379;DHT22;11357;49.990;7.370;2022-07-09T07:01:49;26.20;56.80
22379;DHT22;11357;49.990;7.370;2022-07-09T07:04:14;26.70;55.90
22379;DHT22;11357;49.990;7.370;2022-07-09T07:06:41;27.20;54.80
22379;DHT22;11357;49.990;7.370;2022-07-09T07:09:07;27.60;54.10
22379;DHT22;11357;49.990;7.370;2022-07-09T07:11:33;28.20;53.30
22379;DHT22;11357;49.990;7.370;2022-07-09T07:13:59;28.70;52.10
22379;DHT22;11357;49.990;7.370;2022-07-09T07:16:25;29.10;50.90
22379;DHT22;11357;49.990;7.370;2022-07-09T07:18:51;29.10;50.30
22379;DHT22;11357;49.990;7.370;2022-07-09T07:21:16;29.20;49.90
22379;DHT22;11357;49.990;7.370;2022-07-09T07:23:42;29.10;49.40
22379;DHT22;11357;49.990;7.370;2022-07-09T07:26:08;29.20;49.00
22379;DHT22;11357;49.990;7.370;2022-07-09T07:28:34;29.20;49.30
22379;DHT22;11357;49.990;7.370;2022-07-09T07:30:59;29.40;48.90
22379;DHT22;11357;49.990;7.370;2022-07-09T07:33:25;29.70;48.50
22379;DHT22;11357;49.990;7.370;2022-07-09T07:38:19;29.80;47.10
22379;DHT22;11357;49.990;7.370;2022-07-09T07:40:44;29.90;46.70
22379;DHT22;11357;49.990;7.370;2022-07-09T07:43:11;30.00;46.80
22379;DHT22;11357;49.990;7.370;2022-07-09T07:45:37;30.20;46.40
22379;DHT22;11357;49.990;7.370;2022-07-09T07:48:03;30.20;45.90
22379;DHT22;11357;49.990;7.370;2022-07-09T07:50:28;30.40;46.10
22379;DHT22;11357;49.990;7.370;2022-07-09T07:52:54;30.80;45.90
22379;DHT22;11357;49.990;7.370;2022-07-09T07:55:20;31.00;44.70
22379;DHT22;11357;49.990;7.370;2022-07-09T07:57:46;30.90;44.00
22379;DHT22;11357;49.990;7.370;2022-07-09T08:00:12;30.50;43.30
22379;DHT22;11357;49.990;7.370;2022-07-09T08:02:38;30.10;44.30
22379;DHT22;11357;49.990;7.370;2022-07-09T08:05:04;29.90;44.50
22379;DHT22;11357;49.990;7.370;2022-07-09T08:07:30;29.50;44.40
22379;DHT22;11357;49.990;7.370;2022-07-09T08:09:56;29.10;45.00
22379;DHT22;11357;49.990;7.370;2022-07-09T08:12:21;28.80;45.10
22379;DHT22;11357;49.990;7.370;2022-07-09T08:14:47;28.70;45.70
22379;DHT22;11357;49.990;7.370;2022-07-09T08:17:13;29.00;45.90
22379;DHT22;11357;49.990;7.370;2022-07-09T08:19:39;29.10;45.00
22379;DHT22;11357;49.990;7.370;2022-07-09T08:22:05;28.90;44.70
22379;DHT22;11357;49.990;7.370;2022-07-09T08:24:30;28.60;44.80
22379;DHT22;11357;49.990;7.370;2022-07-09T08:26:56;28.20;45.20
22379;DHT22;11357;49.990;7.370;2022-07-09T08:29:24;28.10;46.30
22379;DHT22;11357;49.990;7.370;2022-07-09T08:31:50;28.00;46.10
22379;DHT22;11357;49.990;7.370;2022-07-09T08:34:16;27.80;46.30
22379;DHT22;11357;49.990;7.370;2022-07-09T08:36:42;27.50;47.20
22379;DHT22;11357;49.990;7.370;2022-07-09T08:39:07;27.80;47.30
22379;DHT22;11357;49.990;7.370;2022-07-09T08:41:33;28.20;46.50
22379;DHT22;11357;49.990;7.370;2022-07-09T08:44:02;28.50;45.50
22379;DHT22;11357;49.990;7.370;2022-07-09T08:46:29;28.40;45.00
22379;DHT22;11357;49.990;7.370;2022-07-09T08:48:55;28.40;44.50
22379;DHT22;11357;49.990;7.370;2022-07-09T08:51:23;28.10;44.50
22379;DHT22;11357;49.990;7.370;2022-07-09T08:53:49;28.10;44.60
22379;DHT22;11357;49.990;7.370;2022-07-09T08:56:15;28.10;45.10
22379;DHT22;11357;49.990;7.370;2022-07-09T08:58:41;28.10;45.40
22379;DHT22;11357;49.990;7.370;2022-07-09T09:01:07;28.00;45.50
22379;DHT22;11357;49.990;7.370;2022-07-09T09:03:33;28.10;45.60
22379;DHT22;11357;49.990;7.370;2022-07-09T09:06:08;28.20;45.20
22379;DHT22;11357;49.990;7.370;2022-07-09T09:08:36;27.90;44.90
22379;DHT22;11357;49.990;7.370;2022-07-09T09:11:03;27.80;45.40
22379;DHT22;11357;49.990;7.370;2022-07-09T09:13:30;27.60;45.60
22379;DHT22;11357;49.990;7.370;2022-07-09T09:16:07;27.30;46.30
22379;DHT22;11357;49.990;7.370;2022-07-09T09:18:39;27.30;46.60
22379;DHT22;11357;49.990;7.370;2022-07-09T09:21:07;27.20;46.30
22379;DHT22;11357;49.990;7.370;2022-07-09T09:23:59;27.30;46.80
22379;DHT22;11357;49.990;7.370;2022-07-09T09:26:28;27.90;46.30
22379;DHT22;11357;49.990;7.370;2022-07-09T09:28:57;28.70;44.90
22379;DHT22;11357;49.990;7.370;2022-07-09T09:31:28;29.30;43.70
22379;DHT22;11357;49.990;7.370;2022-07-09T09:36:32;30.50;42.70
22379;DHT22;11357;49.990;7.370;2022-07-09T09:39:26;30.80;41.30
22379;DHT22;11357;49.990;7.370;2022-07-09T09:41:53;31.00;40.50
22379;DHT22;11357;49.990;7.370;2022-07-09T09:44:21;31.30;40.30
22379;DHT22;11357;49.990;7.370;2022-07-09T09:46:49;31.50;40.30
22379;DHT22;11357;49.990;7.370;2022-07-09T09:49:15;31.70;39.40
22379;DHT22;11357;49.990;7.370;2022-07-09T09:54:10;31.20;38.80
22379;DHT22;11357;49.990;7.370;2022-07-09T09:56:38;30.80;38.50
22379;DHT22;11357;49.990;7.370;2022-07-09T09:59:04;30.50;39.10
22379;DHT22;11357;49.990;7.370;2022-07-09T10:01:30;30.40;39.70
22379;DHT22;11357;49.990;7.370;2022-07-09T10:03:57;30.20;40.00
22379;DHT22;11357;49.990;7.370;2022-07-09T10:06:23;30.20;40.30
22379;DHT22;11357;49.990;7.370;2022-07-09T10:08:50;30.60;39.90
22379;DHT22;11357;49.990;7.370;2022-07-09T10:11:16;30.90;39.30
22379;DHT22;11357;49.990;7.370;2022-07-09T10:34:06;30.90;38.10
22379;DHT22;11357;49.990;7.370;2022-07-09T10:36:33;30.70;38.90
22379;DHT22;11357;49.990;7.370;2022-07-09T10:38:58;30.60;39.60
22379;DHT22;11357;49.990;7.370;2022-07-09T10:41:25;31.40;39.10
22379;DHT22;11357;49.990;7.370;2022-07-09T10:43:51;32.40;38.50
22379;DHT22;11357;49.990;7.370;2022-07-09T10:46:18;33.20;36.70
22379;DHT22;11357;49.990;7.370;2022-07-09T10:48:45;33.50;35.60
22379;DHT22;11357;49.990;7.370;2022-07-09T10:51:18;33.60;35.40
22379;DHT22;11357;49.990;7.370;2022-07-09T10:53:45;34.10;34.90
22379;DHT22;11357;49.990;7.370;2022-07-09T10:56:11;34.30;34.10
22379;DHT22;11357;49.990;7.370;2022-07-09T10:58:46;33.70;33.30
22379;DHT22;11357;49.990;7.370;2022-07-09T11:01:19;33.40;33.90
22379;DHT22;11357;49.990;7.370;2022-07-09T11:03:51;33.20;34.10
22379;DHT22;11357;49.990;7.370;2022-07-09T11:06:17;33.10;34.50
22379;DHT22;11357;49.990;7.370;2022-07-09T11:08:43;33.10;35.10
22379;DHT22;11357;49.990;7.370;2022-07-09T11:11:09;32.90;34.90
22379;DHT22;11357;49.990;7.370;2022-07-09T11:13:35;32.70;35.20
22379;DHT22;11357;49.990;7.370;2022-07-09T11:16:01;32.70;35.40
22379;DHT22;11357;49.990;7.370;2022-07-09T11:18:28;33.00;34.80
22379;DHT22;11357;49.990;7.370;2022-07-09T11:20:54;32.70;34.60
22379;DHT22;11357;49.990;7.370;2022-07-09T11:23:19;32.00;35.20
22379;DHT22;11357;49.990;7.370;2022-07-09T11:25:45;31.40;36.00
22379;DHT22;11357;49.990;7.370;2022-07-09T11:28:23;30.90;36.80
22379;DHT22;11357;49.990;7.370;2022-07-09T11:31:04;30.40;37.40
22379;DHT22;11357;49.990;7.370;2022-07-09T11:33:30;29.90;38.10
22379;DHT22;11357;49.990;7.370;2022-07-09T11:36:16;29.70;38.50
22379;DHT22;11357;49.990;7.370;2022-07-09T11:38:52;30.30;38.80
22379;DHT22;11357;49.990;7.370;2022-07-09T11:41:19;30.50;38.20
22379;DHT22;11357;49.990;7.370;2022-07-09T11:43:51;30.60;37.80
22379;DHT22;11357;49.990;7.370;2022-07-09T11:46:21;30.60;37.80
22379;DHT22;11357;49.990;7.370;2022-07-09T11:48:51;30.50;38.00
22379;DHT22;11357;49.990;7.370;2022-07-09T11:51:27;30.40;38.00
22379;DHT22;11357;49.990;7.370;2022-07-09T11:53:53;30.30;37.90
22379;DHT22;11357;49.990;7.370;2022-07-09T11:56:19;30.00;38.20
22379;DHT22;11357;49.990;7.370;2022-07-09T11:58:52;29.90;38.50
22379;DHT22;11357;49.990;7.370;2022-07-09T12:01:18;29.90;38.60
22379;DHT22;11357;49.990;7.370;2022-07-09T12:03:48;29.90;38.60
22379;DHT22;11357;49.990;7.370;2022-07-09T12:06:14;30.00;38.60
22379;DHT22;11357;49.990;7.370;2022-07-09T12:08:40;30.00;38.50
22379;DHT22;11357;49.990;7.370;2022-07-09T12:11:06;29.90;38.90
22379;DHT22;11357;49.990;7.370;2022-07-09T12:13:31;29.70;39.20
22379;DHT22;11357;49.990;7.370;2022-07-09T12:15:57;29.70;38.90
22379;DHT22;11357;49.990;7.370;2022-07-09T12:18:23;29.60;38.80
22379;DHT22;11357;49.990;7.370;2022-07-09T12:20:49;29.40;39.10
22379;DHT22;11357;49.990;7.370;2022-07-09T12:23:14;29.20;39.60
22379;DHT22;11357;49.990;7.370;2022-07-09T12:25:40;28.90;40.00
22379;DHT22;11357;49.990;7.370;2022-07-09T12:28:06;28.80;40.10
22379;DHT22;11357;49.990;7.370;2022-07-09T12:30:32;28.70;40.20
22379;DHT22;11357;49.990;7.370;2022-07-09T12:54:02;29.90;39.20
22379;DHT22;11357;49.990;7.370;2022-07-09T12:56:53;31.00;37.60
22379;DHT22;11357;49.990;7.370;2022-07-09T12:59:20;31.40;35.90
22379;DHT22;11357;49.990;7.370;2022-07-09T13:01:46;31.80;35.40
22379;DHT22;11357;49.990;7.370;2022-07-09T13:04:13;32.00;34.90
22379;DHT22;11357;49.990;7.370;2022-07-09T13:06:40;32.20;35.10
22379;DHT22;11357;49.990;7.370;2022-07-09T13:09:08;32.60;35.00
22379;DHT22;11357;49.990;7.370;2022-07-09T13:11:36;32.80;34.20
22379;DHT22;11357;49.990;7.370;2022-07-09T13:14:02;32.90;34.70
22379;DHT22;11357;49.990;7.370;2022-07-09T13:16:29;32.90;34.00
22379;DHT22;11357;49.990;7.370;2022-07-09T13:18:55;32.90;34.00
22379;DHT22;11357;49.990;7.370;2022-07-09T13:21:22;32.90;33.70
22379;DHT22;11357;49.990;7.370;2022-07-09T13:23:49;32.60;34.70
22379;DHT22;11357;49.990;7.370;2022-07-09T13:26:17;32.30;34.40
22379;DHT22;11357;49.990;7.370;2022-07-09T13:28:43;32.20;34.40
22379;DHT22;11357;49.990;7.370;2022-07-09T13:31:09;32.00;34.60
22379;DHT22;11357;49.990;7.370;2022-07-09T13:33:35;31.50;34.60
22379;DHT22;11357;49.990;7.370;2022-07-09T13:36:03;31.00;35.40
22379;DHT22;11357;49.990;7.370;2022-07-09T13:38:30;30.70;35.90
22379;DHT22;11357;49.990;7.370;2022-07-09T13:40:56;30.60;36.30
22379;DHT22;11357;49.990;7.370;2022-07-09T13:43:23;30.40;36.50
22379;DHT22;11357;49.990;7.370;2022-07-09T13:45:55;30.30;37.30
22379;DHT22;11357;49.990;7.370;2022-07-09T13:48:22;30.30;37.30
22379;DHT22;11357;49.990;7.370;2022-07-09T13:50:48;30.20;37.30
22379;DHT22;11357;49.990;7.370;2022-07-09T13:53:14;30.00;37.60
22379;DHT22;11357;49.990;7.370;2022-07-09T13:55:40;29.80;38.00
22379;DHT22;11357;49.990;7.370;2022-07-09T13:58:06;29.80;38.30
22379;DHT22;11357;49.990;7.370;2022-07-09T14:00:32;29.80;38.10
22379;DHT22;11357;49.990;7.370;2022-07-09T14:02:58;29.70;38.00
22379;DHT22;11357;49.990;7.370;2022-07-09T14:05:24;29.60;38.20
22379;DHT22;11357;49.990;7.370;2022-07-09T14:07:50;29.60;38.60
22379;DHT22;11357;49.990;7.370;2022-07-09T14:10:16;29.70;38.50
22379;DHT22;11357;49.990;7.370;2022-07-09T14:12:41;29.60;38.20
22379;DHT22;11357;49.990;7.370;2022-07-09T14:15:08;29.40;38.40
22379;DHT22;11357;49.990;7.370;2022-07-09T14:17:34;29.40;38.50
22379;DHT22;11357;49.990;7.370;2022-07-09T14:20:00;29.30;38.20
22379;DHT22;11357;49.990;7.370;2022-07-09T14:22:26;29.20;38.70
22379;DHT22;11357;49.990;7.370;2022-07-09T14:24:52;29.10;38.40
22379;DHT22;11357;49.990;7.370;2022-07-09T14:27:17;29.10;39.00
22379;DHT22;11357;49.990;7.370;2022-07-09T14:29:44;29.20;38.90
22379;DHT22;11357;49.990;7.370;2022-07-09T14:32:10;29.10;38.90
22379;DHT22;11357;49.990;7.370;2022-07-09T14:34:35;29.00;39.00
22379;DHT22;11357;49.990;7.370;2022-07-09T14:37:01;29.00;38.90
22379;DHT22;11357;49.990;7.370;2022-07-09T14:39:27;29.20;39.10
22379;DHT22;11357;49.990;7.370;2022-07-09T14:41:53;29.60;38.80
22379;DHT22;11357;49.990;7.370;2022-07-09T14:44:19;30.00;39.10
22379;DHT22;11357;49.990;7.370;2022-07-09T14:46:44;30.50;38.40
22379;DHT22;11357;49.990;7.370;2022-07-09T14:49:10;31.10;38.40
22379;DHT22;11357;49.990;7.370;2022-07-09T14:51:37;31.50;37.80
22379;DHT22;11357;49.990;7.370;2022-07-09T14:54:04;31.90;36.40
22379;DHT22;11357;49.990;7.370;2022-07-09T14:56:43;32.00;36.30
22379;DHT22;11357;49.990;7.370;2022-07-09T14:59:09;32.20;36.10
22379;DHT22;11357;49.990;7.370;2022-07-09T15:01:34;32.10;36.00
22379;DHT22;11357;49.990;7.370;2022-07-09T15:04:00;32.20;36.00
22379;DHT22;11357;49.990;7.370;2022-07-09T15:06:26;32.20;35.20
22379;DHT22;11357;49.990;7.370;2022-07-09T15:08:51;31.90;35.30
22379;DHT22;11357;49.990;7.370;2022-07-09T15:11:17;31.50;35.50
22379;DHT22;11357;49.990;7.370;2022-07-09T15:13:43;31.30;35.90
22379;DHT22;11357;49.990;7.370;2022-07-09T15:16:08;31.10;35.90
22379;DHT22;11357;49.990;7.370;2022-07-09T15:18:34;31.00;36.10
22379;DHT22;11357;49.990;7.370;2022-07-09T15:21:00;30.70;36.30
22379;DHT22;11357;49.990;7.370;2022-07-09T15:23:26;30.60;36.80
22379;DHT22;11357;49.990;7.370;2022-07-09T15:25:51;30.80;37.10
22379;DHT22;11357;49.990;7.370;2022-07-09T15:28:17;30.90;37.10
22379;DHT22;11357;49.990;7.370;2022-07-09T15:30:43;30.90;36.70
22379;DHT22;11357;49.990;7.370;2022-07-09T15:33:09;30.70;36.40
22379;DHT22;11357;49.990;7.370;2022-07-09T15:35:37;30.40;36.80
22379;DHT22;11357;49.990;7.370;2022-07-09T15:38:03;30.00;37.00
22379;DHT22;11357;49.990;7.370;2022-07-09T15:40:29;29.70;37.50
22379;DHT22;11357;49.990;7.370;2022-07-09T15:42:55;29.60;38.10
22379;DHT22;11357;49.990;7.370;2022-07-09T15:45:21;29.50;38.40
22379;DHT22;11357;49.990;7.370;2022-07-09T15:47:46;29.40;38.50
22379;DHT22;11357;49.990;7.370;2022-07-09T15:50:12;29.20;38.80
22379;DHT22;11357;49.990;7.370;2022-07-09T15:52:41;28.80;39.10
22379;DHT22;11357;49.990;7.370;2022-07-09T15:55:08;28.50;39.50
22379;DHT22;11357;49.990;7.370;2022-07-09T15:57:34;28.20;40.20
22379;DHT22;11357;49.990;7.370;2022-07-09T16:00:02;27.80;43.70
22379;DHT22;11357;49.990;7.370;2022-07-09T16:02:28;27.00;46.30
22379;DHT22;11357;49.990;7.370;2022-07-09T16:04:54;26.30;48.50
22379;DHT22;11357;49.990;7.370;2022-07-09T16:07:20;25.80;50.20
22379;DHT22;11357;49.990;7.370;2022-07-09T16:09:46;25.30;51.70
22379;DHT22;11357;49.990;7.370;2022-07-09T16:12:12;24.90;52.90
22379;DHT22;11357;49.990;7.370;2022-07-09T16:14:56;24.60;54.00